Aérodrome :
LOGIN :

S'inscrire | Disclaimer

   EN    FR    IT 

 










Légende :    VFR   VFR Marginal   IFR   IFR Intensif   IFR Très Intensif
Visi : 
Plafond : 
>= 8 km
>= 3000ft
5 à 8 km
1000 à 3000 ft
1500m à 5 km
500 à 1000 ft
800 à 1500m
200 à 500 ft
< 800m
< 200 ft
Symboles :   Orages  Brouillard  Fortes neiges  Fortes précipitations  Vent > 20 kt
SIGMETs :   Divers  Orages  Givrage  Turbulence  Onde Orograph.  Cendres Volcan.







- Altitude de l'aérodrome : 297 ft
- Code IATA : ODB


LEBA - Córdoba

DERNIER METAR :
  • 151230Z 27008KT 210V300 CAVOK 31/16 Q1016

METARs EXPIRÉS :
  • 151200Z 27007KT 230V320 CAVOK 30/17 Q1016
  • 151130Z 26007KT 210V330 CAVOK 29/16 Q1016
  • 151100Z 25006KT 180V280 CAVOK 28/16 Q1017
  • 151030Z 25006KT 210V300 CAVOK 28/15 Q1017
  • 151000Z 26007KT 210V290 CAVOK 27/15 Q1017

TAF TAF LEBA
Valide du 15 à 12h jusqu'au 15 à 21h UTC


151100Z 1512/1521 26008KT CAVOK
Pas de NOTAMs connus pour ce terrain.
1 SIGMET publié pour la FIR Madrid (LECM) :
 
Orages noyés dans la masse
LECM SIGMET 1 VALID 151237/151600 LEVA
LECM MADRID FIR/UIR EMBD TS OBS AT 1237Z E OF LINE N4055 W002 - N3646 W00404 TOP FL410 STNR NC=



MET'MAP, la Météo Aéronautique d'un coup d'oeil ! - Copyright ORBIFLY Décembre 2007 - Disclaimer

ORBIFLY MET'MAP TEAM :

Programmation & Développement : Alexandra Zaïnal
Conception & Développement : Baudouin d'Aumeries
Co-Programmation & Développement : Marc-Olivier Méhu
Soutien technique & logistique : Manuel Goepfert

Contact : metmap@orbifly.com




SOURCES & CREDITS :

   NOAA